sensor_id;sensor_type;location;lat;lon;timestamp;P1;durP1;ratioP1;P2;durP2;ratioP2
51758;SDS011;66684;47.568;18.734;2023-05-19T00:01:39;4.07;;;2.80;;
51758;SDS011;66684;47.568;18.734;2023-05-19T00:04:08;5.65;;;3.37;;
51758;SDS011;66684;47.568;18.734;2023-05-19T00:06:37;3.65;;;3.10;;
51758;SDS011;66684;47.568;18.734;2023-05-19T00:09:07;4.07;;;3.40;;
51758;SDS011;66684;47.568;18.734;2023-05-19T00:11:34;7.35;;;3.28;;
51758;SDS011;66684;47.568;18.734;2023-05-19T00:14:02;5.45;;;4.05;;
51758;SDS011;66684;47.568;18.734;2023-05-19T00:16:30;6.00;;;3.75;;
51758;SDS011;66684;47.568;18.734;2023-05-19T00:18:56;6.40;;;4.10;;
51758;SDS011;66684;47.568;18.734;2023-05-19T00:21:24;4.93;;;4.03;;
51758;SDS011;66684;47.568;18.734;2023-05-19T00:23:50;5.87;;;5.07;;
51758;SDS011;66684;47.568;18.734;2023-05-19T00:26:16;6.25;;;4.60;;
51758;SDS011;66684;47.568;18.734;2023-05-19T00:28:42;7.20;;;4.72;;
51758;SDS011;66684;47.568;18.734;2023-05-19T00:31:08;5.95;;;4.70;;
51758;SDS011;66684;47.568;18.734;2023-05-19T00:33:34;5.32;;;4.57;;
51758;SDS011;66684;47.568;18.734;2023-05-19T00:36:01;5.40;;;4.87;;
51758;SDS011;66684;47.568;18.734;2023-05-19T00:38:29;8.60;;;4.90;;
51758;SDS011;66684;47.568;18.734;2023-05-19T00:40:56;6.10;;;4.50;;
51758;SDS011;66684;47.568;18.734;2023-05-19T00:43:23;7.05;;;5.25;;
51758;SDS011;66684;47.568;18.734;2023-05-19T00:45:49;7.15;;;5.00;;
51758;SDS011;66684;47.568;18.734;2023-05-19T00:48:15;6.93;;;5.45;;
51758;SDS011;66684;47.568;18.734;2023-05-19T00:50:41;9.07;;;6.15;;
51758;SDS011;66684;47.568;18.734;2023-05-19T00:53:07;6.12;;;5.15;;
51758;SDS011;66684;47.568;18.734;2023-05-19T00:55:33;7.80;;;5.07;;
51758;SDS011;66684;47.568;18.734;2023-05-19T00:58:03;6.50;;;5.00;;
51758;SDS011;66684;47.568;18.734;2023-05-19T01:00:30;6.00;;;5.12;;
51758;SDS011;66684;47.568;18.734;2023-05-19T01:02:56;7.20;;;5.47;;
51758;SDS011;66684;47.568;18.734;2023-05-19T01:05:22;6.82;;;5.12;;
51758;SDS011;66684;47.568;18.734;2023-05-19T01:07:47;5.60;;;3.92;;
51758;SDS011;66684;47.568;18.734;2023-05-19T01:10:18;5.78;;;3.95;;
51758;SDS011;66684;47.568;18.734;2023-05-19T01:12:45;6.28;;;3.97;;
51758;SDS011;66684;47.568;18.734;2023-05-19T01:15:11;4.62;;;3.70;;
51758;SDS011;66684;47.568;18.734;2023-05-19T01:20:20;6.30;;;4.30;;
51758;SDS011;66684;47.568;18.734;2023-05-19T01:28:25;5.95;;;4.35;;
51758;SDS011;66684;47.568;18.734;2023-05-19T01:31:14;7.70;;;5.35;;
51758;SDS011;66684;47.568;18.734;2023-05-19T01:33:42;9.15;;;5.40;;
51758;SDS011;66684;47.568;18.734;2023-05-19T01:36:09;7.47;;;4.93;;
51758;SDS011;66684;47.568;18.734;2023-05-19T01:38:37;7.70;;;5.00;;
51758;SDS011;66684;47.568;18.734;2023-05-19T01:41:05;6.43;;;4.43;;
51758;SDS011;66684;47.568;18.734;2023-05-19T01:43:31;6.75;;;5.07;;
51758;SDS011;66684;47.568;18.734;2023-05-19T01:45:57;6.93;;;5.00;;
51758;SDS011;66684;47.568;18.734;2023-05-19T01:48:25;6.20;;;5.05;;
51758;SDS011;66684;47.568;18.734;2023-05-19T01:50:51;6.93;;;5.62;;
51758;SDS011;66684;47.568;18.734;2023-05-19T01:53:17;6.45;;;5.22;;
51758;SDS011;66684;47.568;18.734;2023-05-19T01:55:45;5.97;;;5.10;;
51758;SDS011;66684;47.568;18.734;2023-05-19T02:07:08;7.93;;;5.87;;
51758;SDS011;66684;47.568;18.734;2023-05-19T02:09:44;9.38;;;6.05;;
51758;SDS011;66684;47.568;18.734;2023-05-19T02:12:31;7.10;;;5.95;;
51758;SDS011;66684;47.568;18.734;2023-05-19T02:15:03;7.90;;;7.03;;
51758;SDS011;66684;47.568;18.734;2023-05-19T02:20:12;9.63;;;6.90;;
51758;SDS011;66684;47.568;18.734;2023-05-19T02:22:38;10.50;;;6.60;;
51758;SDS011;66684;47.568;18.734;2023-05-19T02:25:04;9.02;;;7.10;;
51758;SDS011;66684;47.568;18.734;2023-05-19T02:27:30;8.38;;;6.70;;
51758;SDS011;66684;47.568;18.734;2023-05-19T02:29:56;8.60;;;6.55;;
51758;SDS011;66684;47.568;18.734;2023-05-19T02:32:22;9.32;;;6.70;;
51758;SDS011;66684;47.568;18.734;2023-05-19T02:34:48;9.45;;;5.65;;
51758;SDS011;66684;47.568;18.734;2023-05-19T02:37:14;6.35;;;5.15;;
51758;SDS011;66684;47.568;18.734;2023-05-19T02:39:40;8.27;;;5.70;;
51758;SDS011;66684;47.568;18.734;2023-05-19T02:42:07;5.45;;;4.95;;
51758;SDS011;66684;47.568;18.734;2023-05-19T02:44:33;8.38;;;4.82;;
51758;SDS011;66684;47.568;18.734;2023-05-19T02:46:59;6.35;;;5.00;;
51758;SDS011;66684;47.568;18.734;2023-05-19T02:49:25;7.15;;;4.95;;
51758;SDS011;66684;47.568;18.734;2023-05-19T02:51:51;9.05;;;5.30;;
51758;SDS011;66684;47.568;18.734;2023-05-19T02:54:17;8.13;;;4.93;;
51758;SDS011;66684;47.568;18.734;2023-05-19T02:56:43;6.55;;;4.28;;
51758;SDS011;66684;47.568;18.734;2023-05-19T02:59:09;5.65;;;4.93;;
51758;SDS011;66684;47.568;18.734;2023-05-19T03:01:35;8.68;;;5.30;;
51758;SDS011;66684;47.568;18.734;2023-05-19T03:04:02;6.72;;;5.12;;
51758;SDS011;66684;47.568;18.734;2023-05-19T03:06:28;7.25;;;5.80;;
51758;SDS011;66684;47.568;18.734;2023-05-19T03:08:54;5.72;;;4.75;;
51758;SDS011;66684;47.568;18.734;2023-05-19T03:11:19;7.12;;;5.78;;
51758;SDS011;66684;47.568;18.734;2023-05-19T03:13:47;7.65;;;5.50;;
51758;SDS011;66684;47.568;18.734;2023-05-19T03:16:13;6.95;;;5.78;;
51758;SDS011;66684;47.568;18.734;2023-05-19T03:18:39;8.93;;;5.50;;
51758;SDS011;66684;47.568;18.734;2023-05-19T03:21:06;6.00;;;4.97;;
51758;SDS011;66684;47.568;18.734;2023-05-19T03:23:32;7.00;;;5.82;;
51758;SDS011;66684;47.568;18.734;2023-05-19T03:25:58;7.20;;;5.75;;
51758;SDS011;66684;47.568;18.734;2023-05-19T03:28:23;6.75;;;5.60;;
51758;SDS011;66684;47.568;18.734;2023-05-19T03:30:51;6.72;;;5.72;;
51758;SDS011;66684;47.568;18.734;2023-05-19T03:33:17;8.32;;;5.32;;
51758;SDS011;66684;47.568;18.734;2023-05-19T03:35:43;9.25;;;5.82;;
51758;SDS011;66684;47.568;18.734;2023-05-19T03:38:10;7.10;;;5.53;;
51758;SDS011;66684;47.568;18.734;2023-05-19T03:40:36;9.38;;;5.35;;
51758;SDS011;66684;47.568;18.734;2023-05-19T03:43:02;7.80;;;5.62;;
51758;SDS011;66684;47.568;18.734;2023-05-19T03:45:28;7.07;;;5.53;;
51758;SDS011;66684;47.568;18.734;2023-05-19T03:47:54;7.30;;;5.50;;
51758;SDS011;66684;47.568;18.734;2023-05-19T03:50:20;11.07;;;5.35;;
51758;SDS011;66684;47.568;18.734;2023-05-19T03:52:47;5.87;;;5.22;;
51758;SDS011;66684;47.568;18.734;2023-05-19T03:55:13;8.32;;;6.00;;
51758;SDS011;66684;47.568;18.734;2023-05-19T03:57:39;7.05;;;5.60;;
51758;SDS011;66684;47.568;18.734;2023-05-19T04:00:09;11.32;;;6.12;;
51758;SDS011;66684;47.568;18.734;2023-05-19T04:02:35;7.87;;;6.12;;
51758;SDS011;66684;47.568;18.734;2023-05-19T04:05:01;7.47;;;5.78;;
51758;SDS011;66684;47.568;18.734;2023-05-19T04:07:29;8.80;;;5.57;;
51758;SDS011;66684;47.568;18.734;2023-05-19T04:09:56;7.35;;;5.93;;
51758;SDS011;66684;47.568;18.734;2023-05-19T04:12:22;7.97;;;5.20;;
51758;SDS011;66684;47.568;18.734;2023-05-19T04:14:48;6.47;;;5.18;;
51758;SDS011;66684;47.568;18.734;2023-05-19T04:17:14;8.13;;;5.60;;
51758;SDS011;66684;47.568;18.734;2023-05-19T04:19:40;6.80;;;5.45;;
51758;SDS011;66684;47.568;18.734;2023-05-19T04:22:06;9.93;;;5.47;;
51758;SDS011;66684;47.568;18.734;2023-05-19T04:24:32;9.18;;;5.87;;
51758;SDS011;66684;47.568;18.734;2023-05-19T04:26:58;12.23;;;5.82;;
51758;SDS011;66684;47.568;18.734;2023-05-19T04:29:29;8.20;;;6.47;;
51758;SDS011;66684;47.568;18.734;2023-05-19T04:31:54;9.57;;;6.53;;
51758;SDS011;66684;47.568;18.734;2023-05-19T04:34:21;7.50;;;5.70;;
51758;SDS011;66684;47.568;18.734;2023-05-19T04:36:47;7.20;;;5.60;;
51758;SDS011;66684;47.568;18.734;2023-05-19T04:39:13;9.63;;;5.68;;
51758;SDS011;66684;47.568;18.734;2023-05-19T04:41:40;10.38;;;5.18;;
51758;SDS011;66684;47.568;18.734;2023-05-19T04:44:06;7.95;;;5.68;;
51758;SDS011;66684;47.568;18.734;2023-05-19T04:46:33;9.60;;;6.40;;
51758;SDS011;66684;47.568;18.734;2023-05-19T04:48:59;7.85;;;6.15;;
51758;SDS011;66684;47.568;18.734;2023-05-19T04:51:26;8.35;;;6.78;;
51758;SDS011;66684;47.568;18.734;2023-05-19T04:53:56;13.45;;;7.40;;
51758;SDS011;66684;47.568;18.734;2023-05-19T04:56:22;11.15;;;7.85;;
51758;SDS011;66684;47.568;18.734;2023-05-19T04:58:48;11.50;;;7.87;;
51758;SDS011;66684;47.568;18.734;2023-05-19T05:01:15;9.82;;;7.50;;
51758;SDS011;66684;47.568;18.734;2023-05-19T05:03:41;10.43;;;8.13;;
51758;SDS011;66684;47.568;18.734;2023-05-19T05:06:07;10.68;;;9.10;;
51758;SDS011;66684;47.568;18.734;2023-05-19T05:08:33;10.70;;;8.55;;
51758;SDS011;66684;47.568;18.734;2023-05-19T05:10:59;12.32;;;7.95;;
51758;SDS011;66684;47.568;18.734;2023-05-19T05:13:25;11.07;;;7.90;;
51758;SDS011;66684;47.568;18.734;2023-05-19T05:15:52;9.27;;;8.05;;
51758;SDS011;66684;47.568;18.734;2023-05-19T05:18:18;9.43;;;7.43;;
51758;SDS011;66684;47.568;18.734;2023-05-19T05:20:45;10.70;;;8.02;;
51758;SDS011;66684;47.568;18.734;2023-05-19T05:23:11;8.93;;;7.80;;
51758;SDS011;66684;47.568;18.734;2023-05-19T05:25:39;10.82;;;8.30;;
51758;SDS011;66684;47.568;18.734;2023-05-19T05:28:06;9.15;;;7.60;;
51758;SDS011;66684;47.568;18.734;2023-05-19T05:30:34;9.90;;;8.45;;
51758;SDS011;66684;47.568;18.734;2023-05-19T05:33:01;10.57;;;7.87;;
51758;SDS011;66684;47.568;18.734;2023-05-19T05:35:27;9.45;;;7.93;;
51758;SDS011;66684;47.568;18.734;2023-05-19T05:37:53;13.68;;;9.52;;
51758;SDS011;66684;47.568;18.734;2023-05-19T05:40:19;9.82;;;8.30;;
51758;SDS011;66684;47.568;18.734;2023-05-19T05:42:45;10.25;;;9.07;;
51758;SDS011;66684;47.568;18.734;2023-05-19T05:45:11;11.88;;;9.23;;
51758;SDS011;66684;47.568;18.734;2023-05-19T05:47:37;11.40;;;10.27;;
51758;SDS011;66684;47.568;18.734;2023-05-19T05:50:04;12.82;;;9.93;;
51758;SDS011;66684;47.568;18.734;2023-05-19T05:52:31;10.93;;;9.40;;
51758;SDS011;66684;47.568;18.734;2023-05-19T05:54:57;11.88;;;10.43;;
51758;SDS011;66684;47.568;18.734;2023-05-19T05:57:23;15.82;;;11.38;;
51758;SDS011;66684;47.568;18.734;2023-05-19T05:59:49;20.00;;;11.12;;
51758;SDS011;66684;47.568;18.734;2023-05-19T06:02:18;17.55;;;11.02;;
51758;SDS011;66684;47.568;18.734;2023-05-19T06:04:44;13.30;;;11.35;;
51758;SDS011;66684;47.568;18.734;2023-05-19T06:07:09;14.27;;;11.50;;
51758;SDS011;66684;47.568;18.734;2023-05-19T06:09:36;15.30;;;11.20;;
51758;SDS011;66684;47.568;18.734;2023-05-19T06:12:01;12.98;;;10.68;;
51758;SDS011;66684;47.568;18.734;2023-05-19T06:14:27;12.43;;;10.43;;
51758;SDS011;66684;47.568;18.734;2023-05-19T06:16:53;13.60;;;9.75;;
51758;SDS011;66684;47.568;18.734;2023-05-19T06:19:19;11.05;;;9.85;;
51758;SDS011;66684;47.568;18.734;2023-05-19T06:21:46;16.08;;;9.40;;
51758;SDS011;66684;47.568;18.734;2023-05-19T06:24:12;15.77;;;9.80;;
51758;SDS011;66684;47.568;18.734;2023-05-19T06:26:37;12.32;;;9.13;;
51758;SDS011;66684;47.568;18.734;2023-05-19T06:29:03;10.82;;;8.60;;
51758;SDS011;66684;47.568;18.734;2023-05-19T06:31:29;10.65;;;8.82;;
51758;SDS011;66684;47.568;18.734;2023-05-19T06:33:55;10.70;;;8.55;;
51758;SDS011;66684;47.568;18.734;2023-05-19T06:36:21;11.12;;;8.52;;
51758;SDS011;66684;47.568;18.734;2023-05-19T06:38:47;8.57;;;7.62;;
51758;SDS011;66684;47.568;18.734;2023-05-19T06:41:13;9.52;;;7.45;;
51758;SDS011;66684;47.568;18.734;2023-05-19T06:43:39;8.82;;;7.40;;
51758;SDS011;66684;47.568;18.734;2023-05-19T06:46:05;9.05;;;7.60;;
51758;SDS011;66684;47.568;18.734;2023-05-19T06:48:31;8.45;;;7.30;;
51758;SDS011;66684;47.568;18.734;2023-05-19T06:50:56;10.23;;;6.93;;
51758;SDS011;66684;47.568;18.734;2023-05-19T06:53:22;8.57;;;7.28;;
51758;SDS011;66684;47.568;18.734;2023-05-19T06:55:48;10.07;;;6.65;;
51758;SDS011;66684;47.568;18.734;2023-05-19T06:58:14;7.37;;;6.45;;
51758;SDS011;66684;47.568;18.734;2023-05-19T07:00:41;8.30;;;6.85;;
51758;SDS011;66684;47.568;18.734;2023-05-19T07:03:08;12.40;;;6.62;;
51758;SDS011;66684;47.568;18.734;2023-05-19T07:05:34;7.85;;;6.12;;
51758;SDS011;66684;47.568;18.734;2023-05-19T07:08:00;7.97;;;7.15;;
51758;SDS011;66684;47.568;18.734;2023-05-19T07:10:26;9.90;;;6.80;;
51758;SDS011;66684;47.568;18.734;2023-05-19T07:12:52;8.20;;;7.22;;
51758;SDS011;66684;47.568;18.734;2023-05-19T07:15:18;8.00;;;6.65;;
51758;SDS011;66684;47.568;18.734;2023-05-19T07:17:44;8.13;;;6.03;;
51758;SDS011;66684;47.568;18.734;2023-05-19T07:20:10;9.25;;;5.82;;
51758;SDS011;66684;47.568;18.734;2023-05-19T07:22:36;7.53;;;5.75;;
51758;SDS011;66684;47.568;18.734;2023-05-19T07:25:04;8.05;;;6.43;;
51758;SDS011;66684;47.568;18.734;2023-05-19T07:27:31;7.62;;;6.30;;
51758;SDS011;66684;47.568;18.734;2023-05-19T07:29:57;6.50;;;5.85;;
51758;SDS011;66684;47.568;18.734;2023-05-19T07:32:23;8.80;;;5.87;;
51758;SDS011;66684;47.568;18.734;2023-05-19T07:34:50;8.40;;;5.75;;
51758;SDS011;66684;47.568;18.734;2023-05-19T07:37:16;9.52;;;5.22;;
51758;SDS011;66684;47.568;18.734;2023-05-19T07:39:42;7.12;;;5.55;;
51758;SDS011;66684;47.568;18.734;2023-05-19T07:42:08;8.90;;;5.20;;
51758;SDS011;66684;47.568;18.734;2023-05-19T07:44:34;5.93;;;4.62;;
51758;SDS011;66684;47.568;18.734;2023-05-19T07:47:00;6.32;;;4.47;;
51758;SDS011;66684;47.568;18.734;2023-05-19T07:49:26;6.37;;;5.07;;
51758;SDS011;66684;47.568;18.734;2023-05-19T07:51:52;8.90;;;5.50;;
51758;SDS011;66684;47.568;18.734;2023-05-19T07:54:18;5.43;;;4.82;;
51758;SDS011;66684;47.568;18.734;2023-05-19T07:56:45;7.62;;;5.12;;
51758;SDS011;66684;47.568;18.734;2023-05-19T07:59:11;9.18;;;4.93;;
51758;SDS011;66684;47.568;18.734;2023-05-19T08:01:37;5.65;;;4.80;;
51758;SDS011;66684;47.568;18.734;2023-05-19T08:04:03;6.05;;;4.90;;
51758;SDS011;66684;47.568;18.734;2023-05-19T08:06:29;7.95;;;4.97;;
51758;SDS011;66684;47.568;18.734;2023-05-19T08:08:56;7.05;;;5.28;;
51758;SDS011;66684;47.568;18.734;2023-05-19T08:11:22;8.50;;;5.75;;
51758;SDS011;66684;47.568;18.734;2023-05-19T08:13:48;7.57;;;5.40;;
51758;SDS011;66684;47.568;18.734;2023-05-19T08:16:14;9.98;;;6.00;;
51758;SDS011;66684;47.568;18.734;2023-05-19T08:18:40;7.82;;;4.57;;
51758;SDS011;66684;47.568;18.734;2023-05-19T08:21:06;8.98;;;6.18;;
51758;SDS011;66684;47.568;18.734;2023-05-19T08:23:32;6.93;;;5.18;;
51758;SDS011;66684;47.568;18.734;2023-05-19T08:25:59;7.82;;;5.47;;
51758;SDS011;66684;47.568;18.734;2023-05-19T08:28:26;6.50;;;5.32;;
51758;SDS011;66684;47.568;18.734;2023-05-19T08:30:52;8.32;;;5.65;;
51758;SDS011;66684;47.568;18.734;2023-05-19T08:33:17;7.55;;;5.32;;
51758;SDS011;66684;47.568;18.734;2023-05-19T08:35:46;8.27;;;5.43;;
51758;SDS011;66684;47.568;18.734;2023-05-19T08:38:12;8.00;;;5.62;;
51758;SDS011;66684;47.568;18.734;2023-05-19T08:40:41;9.18;;;5.05;;
51758;SDS011;66684;47.568;18.734;2023-05-19T08:43:07;8.00;;;4.35;;
51758;SDS011;66684;47.568;18.734;2023-05-19T08:45:34;9.48;;;4.82;;
51758;SDS011;66684;47.568;18.734;2023-05-19T08:48:00;7.07;;;5.15;;
51758;SDS011;66684;47.568;18.734;2023-05-19T08:50:28;6.90;;;5.28;;
51758;SDS011;66684;47.568;18.734;2023-05-19T08:52:57;8.27;;;5.40;;
51758;SDS011;66684;47.568;18.734;2023-05-19T08:58:19;8.57;;;5.87;;
51758;SDS011;66684;47.568;18.734;2023-05-19T09:00:47;9.93;;;5.97;;
51758;SDS011;66684;47.568;18.734;2023-05-19T09:03:13;6.07;;;4.65;;
51758;SDS011;66684;47.568;18.734;2023-05-19T09:05:42;6.18;;;4.50;;
51758;SDS011;66684;47.568;18.734;2023-05-19T09:08:08;5.65;;;4.47;;
51758;SDS011;66684;47.568;18.734;2023-05-19T09:10:34;6.35;;;4.25;;
51758;SDS011;66684;47.568;18.734;2023-05-19T09:13:00;8.32;;;4.22;;
51758;SDS011;66684;47.568;18.734;2023-05-19T09:15:26;7.97;;;4.45;;
51758;SDS011;66684;47.568;18.734;2023-05-19T09:18:05;7.97;;;4.18;;
51758;SDS011;66684;47.568;18.734;2023-05-19T09:20:38;4.90;;;4.18;;
51758;SDS011;66684;47.568;18.734;2023-05-19T09:23:06;8.30;;;5.20;;
51758;SDS011;66684;47.568;18.734;2023-05-19T09:25:32;8.02;;;4.93;;
51758;SDS011;66684;47.568;18.734;2023-05-19T09:27:58;8.45;;;5.15;;
51758;SDS011;66684;47.568;18.734;2023-05-19T09:30:24;6.75;;;4.20;;
51758;SDS011;66684;47.568;18.734;2023-05-19T09:32:50;6.00;;;4.55;;
51758;SDS011;66684;47.568;18.734;2023-05-19T09:35:16;5.95;;;3.65;;
51758;SDS011;66684;47.568;18.734;2023-05-19T09:37:45;4.12;;;2.90;;
51758;SDS011;66684;47.568;18.734;2023-05-19T09:40:14;3.53;;;2.87;;
51758;SDS011;66684;47.568;18.734;2023-05-19T09:42:41;5.95;;;4.28;;
51758;SDS011;66684;47.568;18.734;2023-05-19T09:45:08;7.28;;;4.93;;
51758;SDS011;66684;47.568;18.734;2023-05-19T09:47:35;8.50;;;4.72;;
51758;SDS011;66684;47.568;18.734;2023-05-19T09:50:06;6.37;;;4.32;;
51758;SDS011;66684;47.568;18.734;2023-05-19T09:52:39;4.53;;;3.70;;
51758;SDS011;66684;47.568;18.734;2023-05-19T09:55:09;6.43;;;3.85;;
51758;SDS011;66684;47.568;18.734;2023-05-19T09:57:36;6.10;;;4.05;;
51758;SDS011;66684;47.568;18.734;2023-05-19T10:00:06;6.32;;;3.67;;
51758;SDS011;66684;47.568;18.734;2023-05-19T10:02:38;7.60;;;4.53;;
51758;SDS011;66684;47.568;18.734;2023-05-19T10:05:07;7.95;;;4.15;;
51758;SDS011;66684;47.568;18.734;2023-05-19T10:07:38;10.45;;;4.80;;
51758;SDS011;66684;47.568;18.734;2023-05-19T10:10:07;7.72;;;4.70;;
51758;SDS011;66684;47.568;18.734;2023-05-19T10:12:34;6.68;;;4.90;;
51758;SDS011;66684;47.568;18.734;2023-05-19T10:15:02;12.10;;;4.65;;
51758;SDS011;66684;47.568;18.734;2023-05-19T10:17:28;9.20;;;3.65;;
51758;SDS011;66684;47.568;18.734;2023-05-19T10:19:55;3.95;;;2.80;;
51758;SDS011;66684;47.568;18.734;2023-05-19T10:22:22;5.22;;;2.97;;
51758;SDS011;66684;47.568;18.734;2023-05-19T10:24:48;5.07;;;3.05;;
51758;SDS011;66684;47.568;18.734;2023-05-19T10:27:14;4.82;;;2.90;;
51758;SDS011;66684;47.568;18.734;2023-05-19T10:29:43;3.97;;;2.95;;
51758;SDS011;66684;47.568;18.734;2023-05-19T10:32:13;7.43;;;3.43;;
51758;SDS011;66684;47.568;18.734;2023-05-19T10:38:23;4.68;;;2.95;;
51758;SDS011;66684;47.568;18.734;2023-05-19T10:41:02;4.70;;;3.95;;
51758;SDS011;66684;47.568;18.734;2023-05-19T10:46:13;3.42;;;2.85;;
51758;SDS011;66684;47.568;18.734;2023-05-19T10:48:43;4.68;;;2.60;;
51758;SDS011;66684;47.568;18.734;2023-05-19T10:51:10;4.32;;;2.70;;
51758;SDS011;66684;47.568;18.734;2023-05-19T10:53:39;3.12;;;2.53;;
51758;SDS011;66684;47.568;18.734;2023-05-19T10:56:10;5.30;;;2.53;;
51758;SDS011;66684;47.568;18.734;2023-05-19T11:01:19;5.30;;;2.70;;
51758;SDS011;66684;47.568;18.734;2023-05-19T11:11:41;3.53;;;2.30;;
51758;SDS011;66684;47.568;18.734;2023-05-19T11:14:10;5.95;;;2.45;;
51758;SDS011;66684;47.568;18.734;2023-05-19T11:16:40;5.70;;;2.22;;
51758;SDS011;66684;47.568;18.734;2023-05-19T11:19:07;4.70;;;2.65;;
51758;SDS011;66684;47.568;18.734;2023-05-19T11:21:40;5.87;;;2.45;;
51758;SDS011;66684;47.568;18.734;2023-05-19T11:29:58;9.20;;;2.05;;
51758;SDS011;66684;47.568;18.734;2023-05-19T11:32:29;3.05;;;1.80;;
51758;SDS011;66684;47.568;18.734;2023-05-19T11:34:57;2.62;;;1.70;;
51758;SDS011;66684;47.568;18.734;2023-05-19T11:37:24;4.03;;;1.92;;
51758;SDS011;66684;47.568;18.734;2023-05-19T11:39:50;5.78;;;2.67;;
51758;SDS011;66684;47.568;18.734;2023-05-19T11:42:17;2.97;;;2.25;;
51758;SDS011;66684;47.568;18.734;2023-05-19T11:44:44;6.68;;;2.17;;
51758;SDS011;66684;47.568;18.734;2023-05-19T11:47:11;5.05;;;2.45;;
51758;SDS011;66684;47.568;18.734;2023-05-19T11:49:37;2.62;;;1.95;;
51758;SDS011;66684;47.568;18.734;2023-05-19T11:52:03;3.17;;;2.10;;
51758;SDS011;66684;47.568;18.734;2023-05-19T11:54:31;6.93;;;2.40;;
51758;SDS011;66684;47.568;18.734;2023-05-19T11:57:01;3.15;;;2.20;;
51758;SDS011;66684;47.568;18.734;2023-05-19T11:59:31;2.47;;;2.10;;
51758;SDS011;66684;47.568;18.734;2023-05-19T12:02:01;11.65;;;3.00;;
51758;SDS011;66684;47.568;18.734;2023-05-19T12:04:42;3.40;;;2.42;;
51758;SDS011;66684;47.568;18.734;2023-05-19T12:07:09;5.50;;;1.85;;
51758;SDS011;66684;47.568;18.734;2023-05-19T12:09:36;4.32;;;1.70;;
51758;SDS011;66684;47.568;18.734;2023-05-19T12:12:03;16.50;;;1.92;;
51758;SDS011;66684;47.568;18.734;2023-05-19T12:14:29;4.53;;;2.10;;
51758;SDS011;66684;47.568;18.734;2023-05-19T12:17:08;3.95;;;2.20;;
51758;SDS011;66684;47.568;18.734;2023-05-19T12:19:34;2.75;;;1.90;;
51758;SDS011;66684;47.568;18.734;2023-05-19T12:22:01;4.70;;;2.05;;
51758;SDS011;66684;47.568;18.734;2023-05-19T12:24:27;4.20;;;2.00;;
51758;SDS011;66684;47.568;18.734;2023-05-19T12:27:03;5.37;;;2.40;;
51758;SDS011;66684;47.568;18.734;2023-05-19T12:29:38;8.32;;;1.90;;
51758;SDS011;66684;47.568;18.734;2023-05-19T12:32:08;3.83;;;2.33;;
51758;SDS011;66684;47.568;18.734;2023-05-19T12:34:37;3.37;;;2.12;;
51758;SDS011;66684;47.568;18.734;2023-05-19T12:37:04;5.35;;;2.28;;
51758;SDS011;66684;47.568;18.734;2023-05-19T12:39:30;5.07;;;2.17;;
51758;SDS011;66684;47.568;18.734;2023-05-19T12:42:16;6.62;;;2.10;;
51758;SDS011;66684;47.568;18.734;2023-05-19T12:44:45;2.20;;;1.70;;
51758;SDS011;66684;47.568;18.734;2023-05-19T12:47:13;6.32;;;2.28;;
51758;SDS011;66684;47.568;18.734;2023-05-19T12:49:56;6.35;;;2.97;;
51758;SDS011;66684;47.568;18.734;2023-05-19T12:52:33;5.57;;;2.62;;
51758;SDS011;66684;47.568;18.734;2023-05-19T12:55:05;3.62;;;2.28;;
51758;SDS011;66684;47.568;18.734;2023-05-19T12:57:35;3.60;;;2.10;;
51758;SDS011;66684;47.568;18.734;2023-05-19T13:05:30;6.93;;;2.15;;
51758;SDS011;66684;47.568;18.734;2023-05-19T13:08:15;3.95;;;1.98;;
51758;SDS011;66684;47.568;18.734;2023-05-19T13:10:46;4.03;;;1.65;;
51758;SDS011;66684;47.568;18.734;2023-05-19T13:13:12;6.62;;;2.28;;
51758;SDS011;66684;47.568;18.734;2023-05-19T13:15:42;3.72;;;1.50;;
51758;SDS011;66684;47.568;18.734;2023-05-19T13:18:09;4.10;;;1.70;;
51758;SDS011;66684;47.568;18.734;2023-05-19T13:20:36;4.00;;;2.50;;
51758;SDS011;66684;47.568;18.734;2023-05-19T13:23:03;4.10;;;1.90;;
51758;SDS011;66684;47.568;18.734;2023-05-19T13:25:31;3.62;;;1.95;;
51758;SDS011;66684;47.568;18.734;2023-05-19T13:27:59;4.70;;;1.85;;
51758;SDS011;66684;47.568;18.734;2023-05-19T13:30:28;2.87;;;1.87;;
51758;SDS011;66684;47.568;18.734;2023-05-19T13:32:54;3.67;;;1.85;;
51758;SDS011;66684;47.568;18.734;2023-05-19T13:35:20;3.67;;;1.95;;
51758;SDS011;66684;47.568;18.734;2023-05-19T13:37:46;7.93;;;1.60;;
51758;SDS011;66684;47.568;18.734;2023-05-19T13:40:13;2.47;;;1.70;;
51758;SDS011;66684;47.568;18.734;2023-05-19T13:42:40;2.50;;;1.55;;
51758;SDS011;66684;47.568;18.734;2023-05-19T13:45:06;3.30;;;1.70;;
51758;SDS011;66684;47.568;18.734;2023-05-19T13:47:32;4.45;;;1.75;;
51758;SDS011;66684;47.568;18.734;2023-05-19T13:49:58;6.05;;;1.90;;
51758;SDS011;66684;47.568;18.734;2023-05-19T13:52:24;3.47;;;2.00;;
51758;SDS011;66684;47.568;18.734;2023-05-19T13:54:50;2.33;;;1.52;;
51758;SDS011;66684;47.568;18.734;2023-05-19T13:57:18;5.40;;;1.60;;
51758;SDS011;66684;47.568;18.734;2023-05-19T13:59:44;3.58;;;1.60;;
51758;SDS011;66684;47.568;18.734;2023-05-19T14:02:11;2.55;;;1.65;;
51758;SDS011;66684;47.568;18.734;2023-05-19T14:04:37;2.30;;;1.60;;
51758;SDS011;66684;47.568;18.734;2023-05-19T14:07:04;3.40;;;2.05;;
51758;SDS011;66684;47.568;18.734;2023-05-19T14:09:30;2.97;;;1.30;;
51758;SDS011;66684;47.568;18.734;2023-05-19T14:11:57;2.87;;;1.67;;
51758;SDS011;66684;47.568;18.734;2023-05-19T14:14:23;4.68;;;1.75;;
51758;SDS011;66684;47.568;18.734;2023-05-19T14:16:49;4.45;;;1.52;;
51758;SDS011;66684;47.568;18.734;2023-05-19T14:19:15;4.68;;;1.95;;
51758;SDS011;66684;47.568;18.734;2023-05-19T14:21:41;7.10;;;2.20;;
51758;SDS011;66684;47.568;18.734;2023-05-19T14:24:07;5.65;;;2.03;;
51758;SDS011;66684;47.568;18.734;2023-05-19T14:26:33;3.90;;;1.67;;
51758;SDS011;66684;47.568;18.734;2023-05-19T14:28:59;4.12;;;1.67;;
51758;SDS011;66684;47.568;18.734;2023-05-19T14:31:25;2.40;;;2.00;;
51758;SDS011;66684;47.568;18.734;2023-05-19T14:33:51;2.75;;;1.75;;
51758;SDS011;66684;47.568;18.734;2023-05-19T14:36:17;6.72;;;2.17;;
51758;SDS011;66684;47.568;18.734;2023-05-19T14:38:43;4.55;;;1.65;;
51758;SDS011;66684;47.568;18.734;2023-05-19T14:41:09;3.87;;;2.00;;
51758;SDS011;66684;47.568;18.734;2023-05-19T14:43:35;4.62;;;1.50;;
51758;SDS011;66684;47.568;18.734;2023-05-19T14:46:00;9.52;;;2.00;;
51758;SDS011;66684;47.568;18.734;2023-05-19T14:48:26;9.45;;;1.98;;
51758;SDS011;66684;47.568;18.734;2023-05-19T14:50:52;2.20;;;1.40;;
51758;SDS011;66684;47.568;18.734;2023-05-19T14:53:18;6.47;;;2.00;;
51758;SDS011;66684;47.568;18.734;2023-05-19T14:55:46;4.15;;;2.20;;
51758;SDS011;66684;47.568;18.734;2023-05-19T14:58:13;4.18;;;2.05;;
51758;SDS011;66684;47.568;18.734;2023-05-19T15:00:41;5.00;;;1.83;;
51758;SDS011;66684;47.568;18.734;2023-05-19T15:03:08;2.72;;;1.90;;
51758;SDS011;66684;47.568;18.734;2023-05-19T15:05:35;3.17;;;1.70;;
51758;SDS011;66684;47.568;18.734;2023-05-19T15:08:01;4.37;;;1.90;;
51758;SDS011;66684;47.568;18.734;2023-05-19T15:10:28;4.20;;;2.45;;
51758;SDS011;66684;47.568;18.734;2023-05-19T15:12:54;6.80;;;2.20;;
51758;SDS011;66684;47.568;18.734;2023-05-19T15:15:21;4.43;;;1.80;;
51758;SDS011;66684;47.568;18.734;2023-05-19T15:17:47;7.32;;;1.85;;
51758;SDS011;66684;47.568;18.734;2023-05-19T15:20:13;5.25;;;2.03;;
51758;SDS011;66684;47.568;18.734;2023-05-19T15:22:39;4.53;;;1.62;;
51758;SDS011;66684;47.568;18.734;2023-05-19T15:25:05;5.70;;;2.20;;